aviador You're here:

PAOU Decoded Metar

NELSON LAGOON in AK, USA
Report Time2017-05-29 02:56:00
UTC Time2017-05-29 03:59:38
Flight Rules vfr VFR
Wind350° at 07 kt
W.Decomp.*RWY 26: 1.8 kt HW 6.8 kt RCW
W.Rank350° ranks 19
Current wind is below 350° avg. (12.4)
Visibility9999 m
Phenomena:N/A
Clouds:N/A
Expected CloudBase > 800 ft AGL from Temp-Dew spread
CeilingNone
Temp06°C (ISA -9)
Dew Point04°C (87% RH)
AAT2.2°C
QNH1009 hPa
Density Alt-823 ft
Elevation13 ft
Report Wrong Elevation
Raw Report
PAOU 290256Z AUTO 35007KT 10SM CLR 06/04 A2979 RMK AO2 SLP088
T00610044 58001=

Extra information for PAOU:More info

Metar Taf Metar & Taf Last 4 Metars F.Rules Stats Wind Profile Meteogram Temp Stats Airport Information Weather charts Add Link Nearby VenuesMetar ALERT Operation Metar Decoded Social comments

AIRNAV info for PAOU